Time;durP1;ratioP1;P1;durP2;ratioP2;P2;SDS_P1;SDS_P2;PMS_P1;PMS_P2;Temp;Humidity;BMP_temperature;BMP_pressure;BME280_temperature;BME280_humidity;BME280_pressure;Samples;Min_cycle;Max_cycle;Signal;HPM_P1;HPM_P2
2022/06/21 00:01:26;;;;;;;7.10;3.03;;;17.20;91.10;;;;;;5047104;28;20204;-43
2022/06/21 00:03:54;;;;;;;4.88;2.88;;;17.20;91.00;;;;;;5026496;28;20197;-38
2022/06/21 00:06:27;;;;;;;5.28;2.60;;;17.20;91.00;;;;;;5035416;28;20225;-39
2022/06/21 00:08:54;;;;;;;5.63;2.95;;;17.20;91.00;;;;;;5026259;28;20235;-39
2022/06/21 00:11:28;;;;;;;6.38;3.22;;;17.10;91.00;;;;;;5046182;28;20261;-38
2022/06/21 00:13:58;;;;;;;4.47;2.83;;;17.10;91.00;;;;;;5046760;28;20240;-39
2022/06/21 00:16:30;;;;;;;3.35;2.80;;;17.10;91.00;;;;;;5061497;28;20262;-38
2022/06/21 00:18:58;;;;;;;5.38;2.92;;;17.10;91.20;;;;;;5045811;28;20705;-38
2022/06/21 00:21:36;;;;;;;6.18;3.35;;;17.00;91.10;;;;;;5061555;28;20693;-38
2022/06/21 00:24:06;;;;;;;6.55;3.15;;;17.00;91.20;;;;;;5045735;28;20208;-38
2022/06/21 00:26:38;;;;;;;5.35;2.92;;;17.00;91.00;;;;;;5046488;28;20206;-38
2022/06/21 00:29:11;;;;;;;6.22;2.95;;;17.00;91.00;;;;;;5044653;28;20203;-38
2022/06/21 00:31:46;;;;;;;4.53;2.85;;;17.00;91.00;;;;;;5046036;28;20222;-38
2022/06/21 00:34:21;;;;;;;4.30;2.83;;;16.90;91.10;;;;;;5045941;28;20223;-38
2022/06/21 00:36:51;;;;;;;6.82;3.00;;;16.90;91.20;;;;;;5043199;28;20580;-38
2022/06/21 00:39:19;;;;;;;4.53;3.08;;;16.90;91.20;;;;;;5045604;28;20327;-38
2022/06/21 00:41:54;;;;;;;6.15;3.30;;;16.90;91.20;;;;;;5046436;28;20614;-38
2022/06/21 00:44:27;;;;;;;4.85;2.83;;;16.80;91.20;;;;;;5044822;28;20216;-38
2022/06/21 00:47:12;;;;;;;4.68;3.15;;;16.80;91.20;;;;;;5046188;28;20357;-38
2022/06/21 00:50:04;;;;;;;8.50;3.13;;;16.80;91.40;;;;;;5046107;28;20212;-38
2022/06/21 00:53:19;;;;;;;7.07;3.05;;;16.70;91.30;;;;;;5045618;28;20719;-38
2022/06/21 00:55:57;;;;;;;5.47;3.20;;;16.70;91.40;;;;;;4989360;28;20213;-38
2022/06/21 00:58:26;;;;;;;8.43;3.40;;;16.70;91.30;;;;;;5031939;28;20222;-38
2022/06/21 01:01:03;;;;;;;6.60;3.28;;;16.60;91.20;;;;;;5027496;28;20201;-38
2022/06/21 01:03:42;;;;;;;5.53;3.87;;;16.60;91.30;;;;;;5039080;28;20205;-39
2022/06/21 01:06:14;;;;;;;5.93;3.43;;;16.60;91.50;;;;;;5045964;28;20269;-39
2022/06/21 01:08:48;;;;;;;7.25;3.78;;;16.60;91.60;;;;;;5047334;28;20697;-38
2022/06/21 01:11:23;;;;;;;6.40;3.55;;;16.50;91.70;;;;;;5046960;28;20199;-38
2022/06/21 01:13:57;;;;;;;5.15;2.80;;;16.50;91.40;;;;;;5050175;28;20301;-38
2022/06/21 01:16:27;;;;;;;4.88;3.58;;;16.50;91.40;;;;;;5049635;28;20571;-38
2022/06/21 01:18:54;;;;;;;5.70;3.85;;;16.50;91.50;;;;;;5059331;28;20228;-38
2022/06/21 01:21:22;;;;;;;6.47;3.75;;;16.50;91.50;;;;;;5049514;28;20199;-39
2022/06/21 01:24:16;;;;;;;6.97;3.80;;;16.40;91.50;;;;;;5049158;28;20714;-38
2022/06/21 01:26:57;;;;;;;6.32;3.95;;;16.40;91.60;;;;;;5053001;28;20335;-38
2022/06/21 01:29:30;;;;;;;7.40;3.60;;;16.40;91.70;;;;;;5049501;28;20659;-38
2022/06/21 01:32:05;;;;;;;5.15;3.47;;;16.40;91.70;;;;;;5048202;28;20302;-37
2022/06/21 01:34:35;;;;;;;8.00;4.10;;;16.40;91.70;;;;;;5049300;28;20211;-36
2022/06/21 01:37:10;;;;;;;7.28;3.58;;;16.30;91.80;;;;;;5049599;28;20504;-36
2022/06/21 01:39:41;;;;;;;8.32;4.00;;;16.30;91.70;;;;;;5049163;28;20638;-36
2022/06/21 01:42:38;;;;;;;5.22;4.22;;;16.20;91.90;;;;;;5049737;28;20287;-36
2022/06/21 01:45:11;;;;;;;6.10;3.90;;;16.20;91.90;;;;;;5045809;28;20201;-36
2022/06/21 01:47:48;;;;;;;4.60;3.38;;;16.20;91.70;;;;;;5049142;28;20204;-36
2022/06/21 01:50:18;;;;;;;8.57;4.15;;;16.20;91.90;;;;;;5049473;28;20216;-36
2022/06/21 01:52:52;;;;;;;6.63;3.92;;;16.20;91.90;;;;;;5048961;28;20756;-36
2022/06/21 01:55:33;;;;;;;8.40;4.20;;;16.20;91.80;;;;;;5048712;28;20207;-36
2022/06/21 01:58:04;;;;;;;7.05;3.97;;;16.10;91.90;;;;;;5049360;28;20306;-36
2022/06/21 02:00:37;;;;;;;7.75;3.70;;;16.10;91.90;;;;;;5048852;28;20205;-36
2022/06/21 02:03:13;;;;;;;6.73;4.53;;;16.10;91.80;;;;;;5049118;28;20196;-36
2022/06/21 02:05:46;;;;;;;9.98;4.40;;;16.10;91.90;;;;;;5048989;28;20307;-36
2022/06/21 02:08:23;;;;;;;6.25;4.13;;;16.10;92.00;;;;;;5049068;28;20295;-36
2022/06/21 02:10:58;;;;;;;10.32;4.80;;;16.10;92.10;;;;;;5049271;28;20226;-36
2022/06/21 02:13:32;;;;;;;9.73;4.60;;;16.00;92.00;;;;;;5049248;28;20242;-38
2022/06/21 02:16:11;;;;;;;5.30;4.22;;;16.00;92.00;;;;;;5048957;28;20712;-38
2022/06/21 02:18:43;;;;;;;9.70;4.63;;;16.00;92.00;;;;;;5046965;28;20222;-38
2022/06/21 02:21:36;;;;;;;10.38;4.90;;;16.00;92.00;;;;;;5032141;28;20734;-38
2022/06/21 02:24:03;;;;;;;7.68;3.97;;;16.00;92.30;;;;;;5048975;28;20303;-38
2022/06/21 02:26:33;;;;;;;7.82;4.38;;;15.90;92.00;;;;;;5047834;28;20236;-38
2022/06/21 02:29:06;;;;;;;6.90;4.30;;;15.90;92.10;;;;;;5048796;28;20208;-36
2022/06/21 02:31:34;;;;;;;8.48;4.55;;;15.90;92.00;;;;;;5048658;28;20224;-36
2022/06/21 02:34:05;;;;;;;8.20;4.10;;;15.90;92.10;;;;;;5047946;28;20599;-36
2022/06/21 02:36:43;;;;;;;5.15;4.05;;;15.90;92.20;;;;;;5046588;28;20331;-36
2022/06/21 02:39:15;;;;;;;8.93;4.80;;;15.80;92.20;;;;;;5048011;28;20319;-36
2022/06/21 02:41:49;;;;;;;7.35;4.25;;;15.80;92.20;;;;;;5048703;28;20293;-36
2022/06/21 02:44:24;;;;;;;6.65;4.60;;;15.80;92.30;;;;;;5048374;28;20200;-36
2022/06/21 02:47:03;;;;;;;8.38;4.40;;;15.80;92.30;;;;;;5046733;28;20204;-36
2022/06/21 02:50:21;;;;;;;9.32;4.53;;;15.70;92.30;;;;;;5046857;28;20220;-36
2022/06/21 02:52:51;;;;;;;9.55;4.95;;;15.70;92.40;;;;;;5042097;28;20307;-36
2022/06/21 02:55:34;;;;;;;6.82;4.47;;;15.70;92.40;;;;;;5033269;28;20230;-36
2022/06/21 02:58:24;;;;;;;6.95;4.75;;;15.70;92.60;;;;;;5046597;28;20216;-36
2022/06/21 03:00:55;;;;;;;6.38;4.35;;;15.60;92.50;;;;;;5019615;28;20316;-36
2022/06/21 03:03:27;;;;;;;6.53;4.60;;;15.60;92.30;;;;;;5047239;28;20599;-37
2022/06/21 03:06:01;;;;;;;9.15;4.55;;;15.60;92.40;;;;;;5047826;28;20204;-36
2022/06/21 03:08:33;;;;;;;8.07;4.63;;;15.60;92.40;;;;;;5047181;28;20295;-38
2022/06/21 03:11:01;;;;;;;8.85;4.65;;;15.50;92.40;;;;;;5046481;28;20752;-38
2022/06/21 03:13:34;;;;;;;12.17;4.70;;;15.50;92.40;;;;;;5046930;28;20204;-38
2022/06/21 03:16:13;;;;;;;7.72;4.72;;;15.50;92.60;;;;;;5047855;28;20587;-36
2022/06/21 03:18:44;;;;;;;7.88;5.68;;;15.50;92.60;;;;;;5047018;28;20220;-36
2022/06/21 03:21:26;;;;;;;8.38;4.93;;;15.50;92.60;;;;;;5047824;28;20809;-36
2022/06/21 03:23:58;;;;;;;8.35;5.15;;;15.50;92.70;;;;;;5047393;28;20250;-36
2022/06/21 03:26:28;;;;;;;9.60;5.43;;;15.40;92.90;;;;;;5047354;28;20592;-36
2022/06/21 03:28:58;;;;;;;9.00;5.40;;;15.40;92.60;;;;;;5045784;28;20218;-36
2022/06/21 03:31:25;;;;;;;12.15;5.82;;;15.40;92.60;;;;;;5046930;28;20207;-36
2022/06/21 03:34:00;;;;;;;10.05;5.55;;;15.40;92.70;;;;;;5045392;28;20220;-36
2022/06/21 03:36:28;;;;;;;9.38;5.95;;;15.40;92.70;;;;;;5047249;28;20243;-36
2022/06/21 03:39:04;;;;;;;7.75;5.90;;;15.40;92.70;;;;;;5046496;28;20713;-36
2022/06/21 03:41:46;;;;;;;9.30;5.93;;;15.40;92.90;;;;;;5046028;28;20198;-36
2022/06/21 03:44:37;;;;;;;7.75;5.53;;;15.40;92.80;;;;;;5046946;28;20323;-36
2022/06/21 03:47:18;;;;;;;12.67;6.10;;;15.40;93.10;;;;;;5045859;28;20200;-36
2022/06/21 03:50:12;;;;;;;7.30;6.07;;;15.30;93.00;;;;;;5045259;28;20208;-36
2022/06/21 03:52:47;;;;;;;8.98;5.68;;;15.40;93.00;;;;;;5045395;28;20211;-36
2022/06/21 03:55:23;;;;;;;7.63;4.95;;;15.40;92.90;;;;;;5031846;28;20196;-36
2022/06/21 03:58:16;;;;;;;9.18;5.13;;;15.40;92.90;;;;;;5046892;28;20624;-36
2022/06/21 04:00:58;;;;;;;9.43;6.00;;;15.40;93.00;;;;;;5045542;28;20231;-38
2022/06/21 04:03:31;;;;;;;8.37;5.03;;;15.40;93.00;;;;;;5041863;28;20219;-38
2022/06/21 04:06:11;;;;;;;8.50;4.87;;;15.50;92.90;;;;;;5046888;28;20203;-38
2022/06/21 04:08:49;;;;;;;8.57;4.78;;;15.50;93.00;;;;;;5044085;28;20313;-38
2022/06/21 04:11:36;;;;;;;9.43;4.93;;;15.50;93.10;;;;;;5046763;28;20231;-38
2022/06/21 04:14:37;;;;;;;7.25;5.22;;;15.60;93.20;;;;;;5046867;28;20315;-38
2022/06/21 04:17:30;;;;;;;9.20;4.53;;;15.60;93.10;;;;;;5046725;28;20240;-38
2022/06/21 04:20:19;;;;;;;7.25;4.65;;;15.60;93.10;;;;;;5043540;28;20327;-38
2022/06/21 04:23:08;;;;;;;9.48;5.93;;;15.60;93.20;;;;;;5046737;28;20602;-39
2022/06/21 04:25:45;;;;;;;8.15;4.50;;;15.60;93.30;;;;;;5046050;28;20265;-38
2022/06/21 04:28:21;;;;;;;6.65;4.82;;;15.70;93.20;;;;;;5046329;28;20211;-38
2022/06/21 04:30:52;;;;;;;7.15;4.20;;;15.70;93.30;;;;;;5046611;28;20227;-38
2022/06/21 04:33:27;;;;;;;10.63;4.70;;;15.70;93.30;;;;;;5044544;28;20261;-38
2022/06/21 04:36:02;;;;;;;6.53;4.72;;;15.70;93.30;;;;;;5046374;28;20236;-38
2022/06/21 04:39:08;;;;;;;7.57;4.75;;;15.80;93.30;;;;;;5046073;28;20298;-36
2022/06/21 04:41:43;;;;;;;7.35;4.55;;;15.80;93.50;;;;;;4984050;28;20236;-40
2022/06/21 04:44:31;;;;;;;7.30;5.03;;;15.80;93.40;;;;;;5040852;28;20212;-36
2022/06/21 04:47:14;;;;;;;7.90;4.60;;;15.80;93.40;;;;;;5046266;28;20295;-37
2022/06/21 04:49:54;;;;;;;8.18;4.60;;;15.90;93.50;;;;;;5045567;28;20204;-36
2022/06/21 04:52:28;;;;;;;7.13;4.57;;;15.90;93.50;;;;;;5046261;28;20216;-36
2022/06/21 04:54:56;;;;;;;8.35;4.95;;;15.90;93.50;;;;;;5027373;28;20323;-36
2022/06/21 04:57:27;;;;;;;8.30;5.00;;;15.90;93.50;;;;;;5042131;28;20204;-36
2022/06/21 05:00:05;;;;;;;7.22;4.53;;;15.90;93.50;;;;;;5045016;28;20212;-36
2022/06/21 05:02:42;;;;;;;7.43;4.13;;;16.00;93.60;;;;;;5044704;28;20580;-36
2022/06/21 05:05:21;;;;;;;6.28;4.32;;;16.00;93.60;;;;;;5045228;28;20216;-36
2022/06/21 05:08:12;;;;;;;7.20;3.90;;;16.00;93.60;;;;;;5042736;28;20215;-36
2022/06/21 05:10:48;;;;;;;5.07;4.10;;;16.10;93.70;;;;;;5039134;28;20672;-36
2022/06/21 05:13:24;;;;;;;6.70;4.40;;;16.10;93.60;;;;;;5043721;28;20623;-36
2022/06/21 05:15:53;;;;;;;5.60;4.18;;;16.20;93.70;;;;;;5033968;28;20666;-37
2022/06/21 05:18:24;;;;;;;11.35;4.85;;;16.20;93.60;;;;;;5045208;28;20295;-37
2022/06/21 05:21:00;;;;;;;8.77;4.57;;;16.30;93.70;;;;;;5046029;28;20327;-36
2022/06/21 05:23:28;;;;;;;7.50;4.68;;;16.40;94.00;;;;;;5045003;28;20200;-36
2022/06/21 05:26:01;;;;;;;8.48;4.32;;;16.40;93.90;;;;;;5045662;28;20372;-36
2022/06/21 05:28:43;;;;;;;9.40;4.90;;;16.50;94.00;;;;;;5045372;28;20207;-38
2022/06/21 05:31:17;;;;;;;6.68;4.88;;;16.50;94.00;;;;;;5045676;28;20317;-38
2022/06/21 05:33:48;;;;;;;9.55;4.63;;;16.60;93.90;;;;;;5044653;28;20624;-38
2022/06/21 05:36:22;;;;;;;8.98;4.60;;;16.70;94.00;;;;;;5045418;28;20236;-38
2022/06/21 05:38:56;;;;;;;6.53;4.07;;;16.80;94.10;;;;;;5044831;28;20217;-38
2022/06/21 05:41:30;;;;;;;6.60;4.47;;;16.80;94.10;;;;;;5045494;28;20211;-38
2022/06/21 05:44:10;;;;;;;8.07;4.50;;;16.90;94.10;;;;;;5043798;28;20674;-38
2022/06/21 05:46:46;;;;;;;7.13;4.50;;;17.00;94.30;;;;;;5045435;28;20716;-38
2022/06/21 05:49:28;;;;;;;7.20;4.80;;;17.10;94.30;;;;;;5042046;28;20224;-38
2022/06/21 05:52:00;;;;;;;6.47;4.70;;;17.20;94.40;;;;;;5034528;28;20258;-38
2022/06/21 05:54:34;;;;;;;8.98;4.40;;;17.20;94.30;;;;;;5042288;28;20631;-38
2022/06/21 05:57:07;;;;;;;4.88;4.10;;;17.30;94.40;;;;;;5038105;28;20215;-38
2022/06/21 05:59:37;;;;;;;7.32;5.05;;;17.40;94.40;;;;;;5045552;28;20220;-38
2022/06/21 06:02:29;;;;;;;6.60;4.03;;;17.40;94.40;;;;;;5046988;28;20223;-38
2022/06/21 06:05:05;;;;;;;7.90;4.35;;;17.50;94.50;;;;;;5047329;28;20622;-39
2022/06/21 06:07:41;;;;;;;6.32;4.18;;;17.60;94.50;;;;;;5045767;28;20207;-38
2022/06/21 06:10:09;;;;;;;6.00;3.90;;;17.60;94.50;;;;;;5047758;28;20242;-38
2022/06/21 06:12:44;;;;;;;6.30;4.05;;;17.70;94.50;;;;;;5047923;28;20204;-38
2022/06/21 06:15:20;;;;;;;8.88;4.88;;;17.70;94.50;;;;;;5048585;28;20671;-38
2022/06/21 06:17:59;;;;;;;6.70;4.10;;;17.80;94.60;;;;;;5043136;28;20216;-39
2022/06/21 06:20:40;;;;;;;10.20;4.80;;;17.90;94.60;;;;;;5047426;28;20780;-39
2022/06/21 06:23:25;;;;;;;9.02;4.63;;;18.00;94.70;;;;;;5040282;28;20208;-39
2022/06/21 06:26:04;;;;;;;6.80;4.22;;;18.00;94.80;;;;;;5046332;28;20204;-39
2022/06/21 06:28:52;;;;;;;9.85;4.07;;;18.10;94.70;;;;;;5047203;28;20908;-39
2022/06/21 06:31:41;;;;;;;5.40;3.80;;;18.20;94.80;;;;;;5042871;28;20197;-39
2022/06/21 06:34:17;;;;;;;10.18;4.15;;;18.20;94.80;;;;;;5047072;28;20200;-39
2022/06/21 06:36:56;;;;;;;6.60;3.60;;;18.30;94.80;;;;;;5060414;28;20520;-39
2022/06/21 06:39:29;;;;;;;7.75;3.80;;;18.40;94.90;;;;;;5045302;28;20270;-39
2022/06/21 06:42:06;;;;;;;8.73;3.80;;;18.40;94.80;;;;;;5046956;28;20311;-39
2022/06/21 06:44:54;;;;;;;7.10;4.10;;;18.50;94.80;;;;;;5048112;28;20297;-40
2022/06/21 06:47:47;;;;;;;5.82;3.92;;;18.50;94.80;;;;;;5044585;28;20196;-39
2022/06/21 06:50:35;;;;;;;4.90;3.92;;;18.60;94.90;;;;;;5044213;28;20656;-39
2022/06/21 06:53:39;;;;;;;7.88;4.55;;;18.70;94.90;;;;;;5047252;28;20208;-40
2022/06/21 06:56:26;;;;;;;6.22;3.92;;;18.80;94.90;;;;;;5046875;28;20216;-38
2022/06/21 06:59:02;;;;;;;8.02;4.28;;;18.80;94.90;;;;;;5042935;28;20216;-37
2022/06/21 07:01:45;;;;;;;12.75;4.60;;;18.80;94.90;;;;;;5037506;28;20202;-39
2022/06/21 07:04:18;;;;;;;18.42;5.25;;;18.90;95.00;;;;;;5047757;28;20223;-36
2022/06/21 07:06:52;;;;;;;11.20;4.63;;;19.00;95.00;;;;;;5046288;28;20221;-38
2022/06/21 07:09:19;;;;;;;7.18;4.20;;;19.00;95.00;;;;;;5047860;28;20204;-37
2022/06/21 07:12:18;;;;;;;13.45;4.90;;;19.10;95.00;;;;;;5045153;28;20628;-37
2022/06/21 07:14:47;;;;;;;8.88;4.68;;;19.20;95.10;;;;;;5044157;28;20216;-37
2022/06/21 07:17:17;;;;;;;5.05;4.20;;;19.20;95.10;;;;;;5047287;28;20295;-37
2022/06/21 07:19:45;;;;;;;9.05;4.00;;;19.30;95.10;;;;;;5041235;28;20228;-39
2022/06/21 07:22:20;;;;;;;9.40;4.32;;;19.30;95.10;;;;;;5042460;28;20852;-37
2022/06/21 07:25:12;;;;;;;8.20;4.65;;;19.40;95.10;;;;;;5060641;28;20215;-37
2022/06/21 07:27:46;;;;;;;8.40;4.80;;;19.40;95.10;;;;;;5039586;28;20287;-37
2022/06/21 07:30:21;;;;;;;5.72;4.18;;;19.50;95.10;;;;;;5046651;28;20748;-37
2022/06/21 07:33:04;;;;;;;7.95;4.93;;;19.50;95.10;;;;;;5039000;28;20689;-37
2022/06/21 07:35:38;;;;;;;7.90;4.45;;;19.60;95.10;;;;;;5046763;28;20258;-37
2022/06/21 07:38:10;;;;;;;9.60;4.75;;;19.70;95.20;;;;;;5048315;28;20207;-37
2022/06/21 07:40:49;;;;;;;10.63;4.63;;;19.70;95.20;;;;;;5044818;28;20662;-37
2022/06/21 07:43:26;;;;;;;6.85;4.63;;;19.80;95.20;;;;;;5042526;28;20659;-37
2022/06/21 07:45:57;;;;;;;8.15;4.60;;;19.80;95.10;;;;;;5039282;28;20331;-38
2022/06/21 07:48:27;;;;;;;6.30;5.20;;;19.80;95.10;;;;;;5037071;28;20201;-37
2022/06/21 07:51:06;;;;;;;7.07;4.10;;;19.80;95.00;;;;;;5045624;28;20725;-37
2022/06/21 07:53:44;;;;;;;7.07;4.78;;;19.90;95.10;;;;;;5045402;28;20232;-38
2022/06/21 07:56:25;;;;;;;7.03;4.60;;;19.90;94.90;;;;;;5044079;28;20211;-37
2022/06/21 07:59:02;;;;;;;9.55;5.47;;;20.00;95.10;;;;;;5042204;28;20736;-37
2022/06/21 08:07:35;;;;;;;7.30;4.93;;;20.10;95.20;;;;;;5038034;28;20242;-39
2022/06/21 08:10:18;;;;;;;6.60;4.78;;;20.20;95.20;;;;;;5044075;28;20582;-39
2022/06/21 08:12:47;;;;;;;8.55;5.15;;;20.30;95.10;;;;;;5044927;28;20200;-39
2022/06/21 08:15:17;;;;;;;7.53;4.60;;;20.30;95.20;;;;;;5037048;28;21211;-38
2022/06/21 08:18:07;;;;;;;7.35;5.18;;;20.40;95.30;;;;;;5044472;28;20533;-39
2022/06/21 08:20:37;;;;;;;9.43;5.45;;;20.40;95.00;;;;;;5042939;28;20689;-39
2022/06/21 08:23:18;;;;;;;11.50;5.38;;;20.40;95.10;;;;;;5045325;28;20207;-39
2022/06/21 08:26:02;;;;;;;5.20;4.30;;;20.50;95.10;;;;;;5043268;28;20204;-37
2022/06/21 08:28:37;;;;;;;6.85;4.80;;;20.50;95.20;;;;;;5043383;28;20208;-37
2022/06/21 08:31:12;;;;;;;6.28;5.10;;;20.50;95.10;;;;;;5043454;28;20270;-37
2022/06/21 08:33:49;;;;;;;11.40;5.10;;;20.60;95.20;;;;;;5044298;28;20219;-37
2022/06/21 08:36:23;;;;;;;6.85;4.35;;;20.60;95.10;;;;;;5042951;28;20322;-37
2022/06/21 08:39:05;;;;;;;5.30;4.07;;;20.70;95.20;;;;;;5036575;28;20218;-37
2022/06/21 08:41:53;;;;;;;7.20;4.57;;;20.80;95.30;;;;;;5045344;28;20232;-38
2022/06/21 08:44:38;;;;;;;7.50;4.85;;;20.90;95.40;;;;;;5041176;28;20266;-37
2022/06/21 08:47:36;;;;;;;7.65;5.15;;;20.90;95.30;;;;;;5041816;28;20687;-39
2022/06/21 08:50:32;;;;;;;12.05;5.75;;;20.90;95.00;;;;;;5044736;28;20697;-38
2022/06/21 08:53:07;;;;;;;8.00;4.68;;;20.90;95.00;;;;;;5041088;28;20303;-38
2022/06/21 08:55:43;;;;;;;8.43;5.50;;;20.90;95.10;;;;;;5042424;28;20262;-38
2022/06/21 08:58:38;;;;;;;7.25;5.30;;;20.90;95.00;;;;;;5044006;28;20311;-38
2022/06/21 09:01:22;;;;;;;12.68;5.03;;;20.90;94.80;;;;;;5059303;28;20228;-38
2022/06/21 09:04:23;;;;;;;9.70;5.20;;;20.80;94.80;;;;;;5045153;28;20685;-38
2022/06/21 09:06:51;;;;;;;10.65;4.60;;;20.80;94.80;;;;;;5040636;28;20200;-40
2022/06/21 09:09:48;;;;;;;8.15;5.00;;;20.80;94.90;;;;;;5044449;28;20262;-40
2022/06/21 09:12:20;;;;;;;5.70;4.88;;;20.90;94.80;;;;;;5041532;28;20281;-40
2022/06/21 09:15:10;;;;;;;9.43;5.50;;;20.90;94.80;;;;;;5032944;28;20303;-40
2022/06/21 09:18:06;;;;;;;6.97;5.00;;;20.90;94.70;;;;;;5043930;28;20203;-40
2022/06/21 09:20:47;;;;;;;9.75;5.00;;;20.90;94.90;;;;;;5044656;28;20725;-40
2022/06/21 09:23:58;;;;;;;7.72;4.53;;;21.00;95.00;;;;;;5045586;28;20295;-40
2022/06/21 09:26:25;;;;;;;7.50;5.00;;;21.10;95.00;;;;;;5043919;28;20223;-40
2022/06/21 09:28:57;;;;;;;6.85;4.53;;;21.10;94.90;;;;;;5046385;28;20208;-40
2022/06/21 09:31:39;;;;;;;8.13;4.57;;;21.20;95.10;;;;;;5042403;28;20676;-40
2022/06/21 09:34:16;;;;;;;8.20;5.07;;;21.20;95.00;;;;;;5042428;28;20642;-40
2022/06/21 09:37:16;;;;;;;9.77;5.47;;;21.30;95.00;;;;;;5044848;28;20275;-40
2022/06/21 09:40:03;;;;;;;9.52;5.45;;;21.40;95.10;;;;;;5043829;28;20211;-40
2022/06/21 09:43:18;;;;;;;8.90;5.40;;;21.40;95.00;;;;;;5045403;28;20299;-40
2022/06/21 09:45:48;;;;;;;7.80;4.90;;;21.50;94.80;;;;;;5042442;28;20239;-41
2022/06/21 09:48:50;;;;;;;7.45;4.47;;;21.50;95.00;;;;;;5034997;28;20196;-40
2022/06/21 09:51:35;;;;;;;9.82;5.53;;;21.60;95.00;;;;;;5023755;28;20299;-41
2022/06/21 09:54:30;;;;;;;5.10;4.55;;;21.60;94.80;;;;;;5044884;28;20212;-40
2022/06/21 09:57:19;;;;;;;5.57;4.45;;;21.70;94.80;;;;;;5044338;28;20847;-40
2022/06/21 09:59:54;;;;;;;8.57;4.07;;;21.70;94.90;;;;;;5043402;28;20717;-40
2022/06/21 10:02:42;;;;;;;7.97;4.25;;;21.80;95.00;;;;;;5043134;28;20212;-40
2022/06/21 10:06:17;;;;;;;6.72;4.53;;;21.90;95.10;;;;;;5044298;28;20193;-47
2022/06/21 10:08:47;;;;;;;5.40;3.90;;;21.90;94.80;;;;;;4926718;28;20364;-40
2022/06/21 10:11:28;;;;;;;7.72;4.45;;;22.00;95.00;;;;;;5040727;28;20242;-40
2022/06/21 10:14:27;;;;;;;10.82;5.70;;;22.00;94.90;;;;;;5047806;28;20212;-38
2022/06/21 10:17:15;;;;;;;8.88;5.20;;;22.10;94.80;;;;;;5045507;28;20588;-39
2022/06/21 10:19:57;;;;;;;7.15;4.47;;;22.10;94.70;;;;;;5046281;28;20208;-39
2022/06/21 10:22:31;;;;;;;7.53;4.47;;;22.10;94.80;;;;;;5046282;28;20200;-39
2022/06/21 10:25:10;;;;;;;6.68;4.60;;;22.10;94.70;;;;;;5042754;28;20294;-39
2022/06/21 10:28:08;;;;;;;6.88;3.97;;;22.10;94.70;;;;;;5040208;28;20280;-39
2022/06/21 10:30:57;;;;;;;7.32;4.82;;;22.10;94.50;;;;;;5038385;28;20484;-40
2022/06/21 10:33:49;;;;;;;7.90;4.47;;;22.10;94.50;;;;;;5040830;28;20571;-40
2022/06/21 10:36:50;;;;;;;5.80;4.07;;;22.00;94.30;;;;;;5040270;28;20263;-40
2022/06/21 10:39:27;;;;;;;6.28;4.40;;;22.00;94.20;;;;;;5036685;28;20296;-39
2022/06/21 10:46:01;;;;;;;7.30;4.47;;;21.80;94.00;;;;;;5034406;28;20758;-38
2022/06/21 10:48:43;;;;;;;5.88;4.30;;;21.80;93.60;;;;;;5041255;28;20660;-40
2022/06/21 10:51:32;;;;;;;6.18;4.50;;;21.70;94.00;;;;;;5054670;28;20295;-40
2022/06/21 10:54:21;;;;;;;8.80;5.03;;;21.70;93.90;;;;;;5029228;28;20294;-40
2022/06/21 10:57:15;;;;;;;3.95;3.55;;;21.70;93.90;;;;;;5044315;28;20219;-41
2022/06/21 11:03:34;;;;;;;4.55;3.75;;;21.70;94.00;;;;;;4994795;28;20277;-40
2022/06/21 11:06:37;;;;;;;5.25;3.65;;;21.80;94.00;;;;;;5046360;28;20730;-41
2022/06/21 11:09:40;;;;;;;8.43;3.80;;;21.80;93.90;;;;;;5039200;28;20208;-41
2022/06/21 11:12:54;;;;;;;6.20;4.22;;;21.80;93.80;;;;;;5046602;28;20377;-40
2022/06/21 11:15:27;;;;;;;8.55;4.18;;;21.80;93.60;;;;;;5046955;28;20207;-40
2022/06/21 11:18:31;;;;;;;9.57;3.78;;;21.80;93.70;;;;;;5044249;28;20208;-41
2022/06/21 11:21:01;;;;;;;7.45;4.40;;;21.80;93.70;;;;;;5045635;28;20693;-41
2022/06/21 11:23:47;;;;;;;7.13;3.78;;;21.80;93.70;;;;;;5045309;28;20296;-41
2022/06/21 11:26:51;;;;;;;6.75;3.55;;;21.80;93.70;;;;;;5053948;28;20204;-41
2022/06/21 11:29:24;;;;;;;5.95;3.38;;;21.80;93.70;;;;;;5044361;28;20207;-40
2022/06/21 11:32:23;;;;;;;8.25;3.95;;;21.90;94.00;;;;;;5044069;28;20592;-40
2022/06/21 11:35:01;;;;;;;9.90;4.47;;;21.90;93.60;;;;;;5025276;28;20205;-41
2022/06/21 11:37:28;;;;;;;6.43;3.80;;;21.90;93.80;;;;;;5041056;28;20327;-40
2022/06/21 11:40:13;;;;;;;7.50;4.60;;;21.90;93.80;;;;;;5039822;28;20246;-41
2022/06/21 11:42:50;;;;;;;12.43;4.10;;;21.90;93.70;;;;;;5045029;28;20519;-41
2022/06/21 11:45:46;;;;;;;11.05;4.15;;;22.00;93.90;;;;;;5042906;28;20201;-41
2022/06/21 11:48:26;;;;;;;4.88;4.18;;;22.00;93.80;;;;;;5038650;28;20211;-41
2022/06/21 11:51:05;;;;;;;6.43;3.92;;;22.00;93.70;;;;;;5039500;28;20208;-41
2022/06/21 11:53:53;;;;;;;7.10;3.88;;;22.00;93.80;;;;;;5043767;28;20199;-41
2022/06/21 11:56:35;;;;;;;6.50;4.53;;;22.00;93.80;;;;;;5044427;28;20278;-41
2022/06/21 11:59:22;;;;;;;5.43;3.70;;;22.00;93.70;;;;;;5037339;28;20303;-41
2022/06/21 12:02:23;;;;;;;4.57;3.53;;;22.00;93.70;;;;;;5046460;28;20239;-40
2022/06/21 12:05:00;;;;;;;8.35;3.80;;;22.10;93.80;;;;;;5042706;28;20200;-41
2022/06/21 12:07:43;;;;;;;6.80;3.40;;;22.00;93.70;;;;;;5050588;28;20564;-41
2022/06/21 12:10:27;;;;;;;5.35;3.28;;;22.00;93.70;;;;;;5045120;28;20310;-41
2022/06/21 12:13:22;;;;;;;4.05;3.30;;;22.10;93.90;;;;;;5040017;28;21553;-41
2022/06/21 12:16:28;;;;;;;4.90;3.40;;;22.10;94.00;;;;;;5052732;28;20287;-41
2022/06/21 12:19:07;;;;;;;5.20;3.03;;;22.20;93.80;;;;;;5035344;28;20595;-41
2022/06/21 12:21:51;;;;;;;9.32;4.20;;;22.20;94.00;;;;;;5028716;28;20963;-41
2022/06/21 12:24:23;;;;;;;5.55;3.90;;;22.30;93.90;;;;;;5042910;28;20216;-41
2022/06/21 12:26:55;;;;;;;5.70;3.78;;;22.30;93.90;;;;;;5044047;28;20200;-41
2022/06/21 12:29:24;;;;;;;4.35;3.55;;;22.30;93.90;;;;;;5044689;28;20208;-41
2022/06/21 12:32:00;;;;;;;6.90;3.22;;;22.30;93.80;;;;;;5044760;28;20241;-41
2022/06/21 12:34:55;;;;;;;5.35;3.15;;;22.30;93.70;;;;;;5045125;28;20207;-41
2022/06/21 12:37:32;;;;;;;5.32;3.30;;;22.30;93.60;;;;;;5044932;28;20671;-41
2022/06/21 12:40:29;;;;;;;4.88;3.55;;;22.30;93.70;;;;;;5045260;28;20264;-41
2022/06/21 12:43:25;;;;;;;5.30;3.15;;;22.30;93.60;;;;;;5041120;28;20667;-41
2022/06/21 12:46:01;;;;;;;5.47;3.42;;;22.30;93.50;;;;;;5026287;28;20288;-41
2022/06/21 12:49:13;;;;;;;6.03;3.70;;;22.30;93.60;;;;;;5040956;28;20797;-41
2022/06/21 12:52:07;;;;;;;6.07;3.75;;;22.40;93.50;;;;;;4992121;28;20307;-41
2022/06/21 12:55:11;;;;;;;4.45;3.10;;;22.30;93.50;;;;;;5043259;28;20253;-41
2022/06/21 12:57:59;;;;;;;6.28;3.75;;;22.30;93.30;;;;;;5038264;28;20219;-41
2022/06/21 13:00:39;;;;;;;8.27;3.78;;;22.30;93.50;;;;;;5037597;28;20908;-41
2022/06/21 13:03:06;;;;;;;5.75;3.63;;;22.30;93.40;;;;;;5045672;28;20369;-41
2022/06/21 13:05:34;;;;;;;8.30;3.60;;;22.30;93.50;;;;;;5048761;28;20253;-41
2022/06/21 13:08:29;;;;;;;6.95;3.42;;;22.30;93.50;;;;;;5046488;28;20216;-41
2022/06/21 13:11:30;;;;;;;4.35;3.75;;;22.30;93.50;;;;;;5037476;28;20232;-41
2022/06/21 13:14:42;;;;;;;6.90;4.30;;;22.40;93.20;;;;;;5029146;28;20278;-41
2022/06/21 13:17:24;;;;;;;7.22;3.78;;;22.30;93.40;;;;;;5021558;28;20235;-41
2022/06/21 13:20:17;;;;;;;7.13;3.67;;;22.30;93.30;;;;;;5046528;28;20206;-41
2022/06/21 13:23:11;;;;;;;4.82;3.70;;;22.30;93.00;;;;;;5048338;28;20266;-41
2022/06/21 13:26:06;;;;;;;5.25;3.70;;;22.30;93.10;;;;;;5018311;28;20201;-41
2022/06/21 13:29:16;;;;;;;6.80;3.78;;;22.20;93.00;;;;;;5036231;28;20538;-42
2022/06/21 13:31:55;;;;;;;4.75;3.05;;;22.20;93.20;;;;;;5034245;28;20630;-41
2022/06/21 13:34:48;;;;;;;6.68;3.70;;;22.20;93.30;;;;;;5044382;28;20204;-41
2022/06/21 13:37:22;;;;;;;10.48;3.88;;;22.20;93.20;;;;;;5039630;28;20239;-44
2022/06/21 13:40:11;;;;;;;5.70;3.40;;;22.20;93.10;;;;;;5046852;28;20223;-41
2022/06/21 13:42:53;;;;;;;4.97;3.17;;;22.20;92.80;;;;;;5044800;28;20805;-41
2022/06/21 13:45:49;;;;;;;8.10;3.40;;;22.20;93.10;;;;;;5044149;28;20279;-41
2022/06/21 13:48:21;;;;;;;4.78;3.20;;;22.20;93.00;;;;;;5016812;28;20299;-41
2022/06/21 13:51:04;;;;;;;5.72;3.53;;;22.20;93.20;;;;;;5047300;28;20212;-41
2022/06/21 13:54:12;;;;;;;4.20;3.42;;;22.20;93.20;;;;;;5037285;28;20314;-41
2022/06/21 13:56:59;;;;;;;7.97;3.47;;;22.20;92.90;;;;;;4972455;28;20199;-42
2022/06/21 13:59:31;;;;;;;4.57;3.13;;;22.20;92.80;;;;;;5042273;28;20612;-42
2022/06/21 14:02:04;;;;;;;5.93;3.30;;;22.20;93.10;;;;;;5038009;28;20218;-42
2022/06/21 14:04:40;;;;;;;5.50;2.92;;;22.30;93.20;;;;;;5042196;28;20728;-43
2022/06/21 14:07:20;;;;;;;4.18;3.42;;;22.30;93.20;;;;;;5041191;28;20515;-45
2022/06/21 14:10:04;;;;;;;7.22;3.38;;;22.30;93.00;;;;;;5042174;28;20211;-41